createdAt,value
2018-05-01T00:02:12.541Z,46.90
2018-05-01T00:04:39.990Z,46.60
2018-05-01T00:07:08.212Z,46.90
2018-05-01T00:09:35.654Z,46.80
2018-05-01T00:12:03.102Z,46.90
2018-05-01T00:14:30.541Z,46.80
2018-05-01T00:16:58.006Z,46.60
2018-05-01T00:19:25.456Z,46.70
2018-05-01T00:21:52.910Z,47.00
2018-05-01T00:24:20.368Z,46.90
2018-05-01T00:26:47.816Z,47.00
2018-05-01T00:29:15.257Z,46.90
2018-05-01T00:31:43.476Z,46.90
2018-05-01T00:34:10.922Z,46.90
2018-05-01T00:36:38.397Z,46.90
2018-05-01T00:39:06.613Z,47.00
2018-05-01T00:41:34.834Z,46.90
2018-05-01T00:44:02.274Z,46.90
2018-05-01T00:46:29.718Z,46.60
2018-05-01T00:48:57.231Z,46.80
2018-05-01T00:51:24.714Z,46.60
2018-05-01T00:53:52.133Z,46.70
2018-05-01T00:56:19.575Z,46.80
2018-05-01T00:58:47.046Z,46.60
2018-05-01T01:01:14.478Z,46.70
2018-05-01T01:03:42.023Z,46.70
2018-05-01T01:06:09.381Z,46.60
2018-05-01T01:08:36.838Z,46.60
2018-05-01T01:11:04.280Z,46.70
2018-05-01T01:13:31.744Z,47.20
2018-05-01T01:15:59.190Z,46.80
2018-05-01T01:18:26.653Z,46.80
2018-05-01T01:20:54.095Z,46.90
2018-05-01T01:23:21.553Z,47.00
2018-05-01T01:25:49.008Z,47.10
2018-05-01T01:28:16.467Z,47.10
2018-05-01T01:30:43.909Z,47.00
2018-05-01T01:33:12.133Z,46.90
2018-05-01T01:35:39.097Z,46.90
2018-05-01T01:38:06.055Z,46.90
2018-05-01T01:40:33.015Z,47.20
2018-05-01T01:42:59.983Z,46.90
2018-05-01T01:45:26.934Z,47.00
2018-05-01T01:47:53.885Z,47.20
2018-05-01T01:50:20.865Z,47.70
2018-05-01T01:52:47.808Z,47.10
2018-05-01T01:55:14.773Z,47.10
2018-05-01T01:57:42.496Z,47.10
2018-05-01T02:00:09.461Z,47.00
2018-05-01T02:02:37.186Z,47.10
2018-05-01T02:05:04.158Z,47.00
2018-05-01T02:07:31.101Z,46.90
2018-05-01T02:09:58.072Z,47.00
2018-05-01T02:12:25.791Z,47.00
2018-05-01T02:14:52.744Z,47.00
2018-05-01T02:17:19.704Z,47.00
2018-05-01T02:19:46.661Z,47.00
2018-05-01T02:22:14.378Z,47.20
2018-05-01T02:24:41.336Z,47.20
2018-05-01T02:27:08.290Z,47.20
2018-05-01T02:29:35.261Z,47.00
2018-05-01T02:32:02.975Z,47.50
2018-05-01T02:34:29.940Z,47.50
2018-05-01T02:36:56.894Z,47.50
2018-05-01T02:39:24.642Z,47.80
2018-05-01T02:41:51.585Z,47.80
2018-05-01T02:44:18.546Z,47.80
2018-05-01T02:46:46.279Z,47.70
2018-05-01T02:49:13.260Z,47.70
2018-05-01T02:51:40.982Z,47.80
2018-05-01T02:54:07.954Z,47.70
2018-05-01T02:56:34.915Z,47.60
2018-05-01T02:59:02.644Z,47.70
2018-05-01T03:01:29.627Z,47.70
2018-05-01T03:03:57.337Z,47.70
2018-05-01T03:06:24.310Z,47.70
2018-05-01T03:08:51.262Z,47.80
2018-05-01T03:11:19.002Z,48.00
2018-05-01T03:13:45.950Z,48.00
2018-05-01T03:16:12.910Z,47.70
2018-05-01T03:18:40.634Z,47.80
2018-05-01T03:21:07.602Z,47.80
2018-05-01T03:23:34.558Z,48.30
2018-05-01T03:26:02.289Z,47.90
2018-05-01T03:28:29.252Z,47.90
2018-05-01T03:30:56.223Z,47.80
2018-05-01T03:33:23.979Z,47.90
2018-05-01T03:35:50.926Z,47.90
2018-05-01T03:38:18.644Z,47.90
2018-05-01T03:40:45.618Z,47.90
2018-05-01T03:43:12.570Z,48.10
2018-05-01T03:45:40.303Z,48.30
2018-05-01T03:48:08.425Z,48.90
2018-05-01T03:50:35.390Z,48.30
2018-05-01T03:53:02.335Z,48.30
2018-05-01T03:55:29.292Z,48.40
2018-05-01T03:57:56.240Z,48.80
2018-05-01T04:00:23.200Z,48.40
2018-05-01T04:02:50.148Z,48.40
2018-05-01T04:05:17.101Z,48.40
2018-05-01T04:07:44.823Z,48.40
2018-05-01T04:10:12.609Z,48.40
2018-05-01T04:12:39.556Z,48.40
2018-05-01T04:15:06.512Z,48.40
2018-05-01T04:17:33.464Z,48.50
2018-05-01T04:20:01.187Z,48.60
2018-05-01T04:22:28.150Z,48.60
2018-05-01T04:24:55.098Z,48.80
2018-05-01T04:27:22.056Z,48.90
2018-05-01T04:29:49.771Z,49.10
2018-05-01T04:32:16.722Z,49.20
2018-05-01T04:34:44.436Z,49.50
2018-05-01T04:37:11.399Z,49.40
2018-05-01T04:39:38.349Z,49.70
2018-05-01T04:42:05.299Z,49.80
2018-05-01T04:44:32.247Z,49.80
2018-05-01T04:46:59.217Z,49.80
2018-05-01T04:49:26.169Z,49.90
2018-05-01T04:51:53.186Z,50.00
2018-05-01T04:54:20.334Z,50.30
2018-05-01T04:56:47.307Z,50.50
2018-05-01T04:59:14.261Z,50.50
2018-05-01T05:01:41.220Z,50.60
2018-05-01T05:04:08.936Z,51.30
2018-05-01T05:06:35.903Z,51.30
2018-05-01T05:09:02.854Z,51.60
2018-05-01T05:11:29.820Z,51.80
2018-05-01T05:13:57.537Z,52.30
2018-05-01T05:16:24.500Z,52.30
2018-05-01T05:18:51.457Z,52.70
2018-05-01T05:21:19.344Z,53.90
2018-05-01T05:23:46.301Z,53.40
2018-05-01T05:26:13.266Z,53.50
2018-05-01T05:28:40.212Z,53.60
2018-05-01T05:31:07.160Z,53.60
2018-05-01T05:33:34.152Z,54.00
2018-05-01T05:36:01.860Z,54.10
2018-05-01T05:38:28.812Z,54.10
2018-05-01T05:40:55.756Z,54.10
2018-05-01T05:43:22.725Z,54.00
2018-05-01T05:45:49.675Z,54.20
2018-05-01T05:48:17.408Z,54.80
2018-05-01T05:50:44.364Z,54.80
2018-05-01T05:53:11.319Z,54.80
2018-05-01T05:55:38.266Z,54.80
2018-05-01T05:58:05.993Z,54.90
2018-05-01T06:00:32.940Z,54.80
2018-05-01T06:03:00.669Z,54.90
2018-05-01T06:05:27.616Z,55.40
2018-05-01T06:07:54.580Z,55.20
2018-05-01T06:10:21.525Z,55.50
2018-05-01T06:12:48.492Z,55.80
2018-05-01T06:15:15.449Z,56.10
2018-05-01T06:17:42.412Z,56.20
2018-05-01T06:20:10.140Z,56.60
2018-05-01T06:22:37.093Z,56.60
2018-05-01T06:25:04.044Z,56.30
2018-05-01T06:27:31.003Z,56.60
2018-05-01T06:29:58.765Z,57.10
2018-05-01T06:32:26.480Z,57.70
2018-05-01T06:34:53.455Z,57.10
2018-05-01T06:37:20.421Z,57.20
2018-05-01T06:39:48.137Z,57.00
2018-05-01T06:42:15.088Z,57.00
2018-05-01T06:44:42.048Z,56.90
2018-05-01T06:47:09.765Z,57.10
2018-05-01T06:49:36.724Z,57.00
2018-05-01T06:52:04.440Z,56.50
2018-05-01T06:54:31.397Z,56.60
2018-05-01T06:56:58.350Z,56.70
2018-05-01T06:59:25.301Z,56.60
2018-05-01T07:01:52.248Z,56.80
2018-05-01T07:04:19.297Z,57.00
2018-05-01T07:06:46.927Z,57.50
2018-05-01T07:09:13.886Z,57.50
2018-05-01T07:11:40.837Z,57.60
2018-05-01T07:14:07.852Z,57.50
2018-05-01T07:16:35.569Z,57.30
2018-05-01T07:19:02.542Z,57.30
2018-05-01T07:21:30.252Z,57.80
2018-05-01T07:23:57.210Z,57.80
2018-05-01T07:26:24.157Z,57.90
2018-05-01T07:28:51.138Z,58.60
2018-05-01T07:31:18.848Z,58.20
2018-05-01T07:33:45.812Z,58.20
2018-05-01T07:36:12.762Z,58.20
2018-05-01T07:38:39.737Z,58.40
2018-05-01T07:41:07.452Z,58.90
2018-05-01T07:43:34.412Z,58.90
2018-05-01T07:46:01.369Z,59.00
2018-05-01T07:48:28.320Z,59.20
2018-05-01T07:50:56.041Z,59.40
2018-05-01T07:53:23.130Z,59.50
2018-05-01T07:55:50.872Z,59.70
2018-05-01T07:58:17.824Z,59.70
2018-05-01T08:00:44.781Z,59.90
2018-05-01T08:03:12.504Z,60.10
2018-05-01T08:05:39.465Z,60.10
2018-05-01T08:08:06.425Z,60.30
2018-05-01T08:10:33.373Z,60.20
2018-05-01T08:13:01.096Z,60.30
2018-05-01T08:15:28.059Z,60.40
2018-05-01T08:17:55.021Z,60.30
2018-05-01T08:20:21.973Z,60.20
2018-05-01T08:22:49.692Z,60.50
2018-05-01T08:25:16.648Z,60.50
2018-05-01T08:27:43.595Z,60.50
2018-05-01T08:30:10.561Z,60.50
2018-05-01T08:32:38.282Z,60.50
2018-05-01T08:35:05.240Z,60.40
2018-05-01T08:37:32.260Z,60.40
2018-05-01T08:39:59.144Z,60.30
2018-05-01T08:42:26.093Z,60.20
2018-05-01T08:44:53.048Z,60.10
2018-05-01T08:47:20.763Z,59.90
2018-05-01T08:49:47.743Z,59.90
2018-05-01T08:52:14.689Z,59.90
2018-05-01T08:54:41.644Z,59.90
2018-05-01T08:57:08.591Z,59.70
2018-05-01T08:59:36.330Z,60.00
2018-05-01T09:02:03.277Z,60.00
2018-05-01T09:04:30.216Z,59.90
2018-05-01T09:06:57.200Z,59.70
2018-05-01T09:09:24.160Z,59.80
2018-05-01T09:11:51.101Z,59.70
2018-05-01T09:14:18.061Z,59.10
2018-05-01T09:16:45.017Z,58.90
2018-05-01T09:19:11.971Z,59.00
2018-05-01T09:21:38.928Z,59.10
2018-05-01T09:24:05.880Z,59.00
2018-05-01T09:26:32.844Z,58.90
2018-05-01T09:28:59.817Z,58.90
2018-05-01T09:31:26.769Z,58.70
2018-05-01T09:33:53.729Z,58.40
2018-05-01T09:36:20.684Z,57.90
2018-05-01T09:38:47.656Z,57.50
2018-05-01T09:41:15.399Z,57.40
2018-05-01T09:43:42.350Z,57.50
2018-05-01T09:46:09.308Z,57.50
2018-05-01T09:48:37.029Z,57.60
2018-05-01T09:51:03.990Z,57.60
2018-05-01T09:53:31.433Z,57.60
2018-05-01T09:55:58.888Z,57.10
2018-05-01T09:58:26.336Z,57.00
2018-05-01T10:00:53.800Z,56.60
2018-05-01T10:03:21.244Z,56.70
2018-05-01T10:05:48.701Z,56.20
2018-05-01T10:08:16.144Z,56.30
2018-05-01T10:10:43.607Z,56.50
2018-05-01T10:13:11.045Z,56.40
2018-05-01T10:15:38.494Z,55.90
2018-05-01T10:18:05.956Z,55.60
2018-05-01T10:20:33.407Z,55.50
2018-05-01T10:23:00.936Z,55.40
2018-05-01T10:25:28.392Z,55.30
2018-05-01T10:27:56.657Z,54.60
2018-05-01T10:30:24.102Z,54.60
2018-05-01T10:32:51.561Z,54.80
2018-05-01T10:35:18.999Z,54.90
2018-05-01T10:37:47.215Z,55.00
2018-05-01T10:40:14.654Z,54.90
2018-05-01T10:42:42.870Z,55.10
2018-05-01T10:45:10.306Z,55.00
2018-05-01T10:47:37.759Z,54.60
2018-05-01T10:50:05.194Z,53.90
2018-05-01T10:52:33.408Z,54.30
2018-05-01T10:55:00.871Z,54.30
2018-05-01T10:57:28.324Z,54.10
2018-05-01T10:59:55.784Z,54.10
2018-05-01T11:02:23.222Z,54.10
2018-05-01T11:04:50.656Z,53.80
2018-05-01T11:07:18.180Z,53.30
2018-05-01T11:09:45.625Z,53.60
2018-05-01T11:12:13.072Z,53.60
2018-05-01T11:14:40.508Z,53.70
2018-05-01T11:17:07.957Z,53.60
2018-05-01T11:19:35.392Z,53.40
2018-05-01T11:22:02.839Z,51.90
2018-05-01T11:24:31.072Z,51.40
2018-05-01T11:26:58.539Z,51.40
2018-05-01T11:29:26.084Z,51.50
2018-05-01T11:31:53.504Z,50.30
2018-05-01T11:34:20.953Z,50.70
2018-05-01T11:36:48.384Z,51.00
2018-05-01T11:39:16.605Z,51.40
2018-05-01T11:41:44.044Z,51.40
2018-05-01T11:44:11.515Z,51.30
2018-05-01T11:46:38.955Z,51.30
2018-05-01T11:49:06.405Z,51.40
2018-05-01T11:51:33.849Z,51.50
2018-05-01T11:54:01.296Z,51.30
2018-05-01T11:56:29.503Z,51.20
2018-05-01T11:58:56.975Z,51.20
2018-05-01T12:01:24.404Z,51.10
2018-05-01T12:03:55.097Z,51.20
2018-05-01T12:06:23.296Z,51.30
2018-05-01T12:08:50.754Z,50.80
2018-05-01T12:11:18.952Z,50.90
2018-05-01T12:13:46.408Z,50.90
2018-05-01T12:16:14.667Z,50.80
2018-05-01T12:18:42.103Z,50.70
2018-05-01T12:21:09.977Z,50.60
2018-05-01T12:23:38.194Z,50.60
2018-05-01T12:26:05.610Z,50.60
2018-05-01T12:28:33.066Z,50.70
2018-05-01T12:31:00.508Z,49.90
2018-05-01T12:33:28.718Z,50.30
2018-05-01T12:35:56.160Z,50.30
2018-05-01T12:38:23.624Z,49.80
2018-05-01T12:40:51.074Z,49.80
2018-05-01T12:43:18.528Z,49.80
2018-05-01T12:45:45.968Z,49.90
2018-05-01T12:48:13.406Z,49.70
2018-05-01T12:50:41.616Z,49.40
2018-05-01T12:53:09.058Z,49.40
2018-05-01T12:55:36.518Z,49.30
2018-05-01T13:00:37.887Z,49.60
2018-05-01T13:03:05.332Z,49.50
2018-05-01T13:05:32.781Z,48.40
2018-05-01T13:08:00.225Z,48.90
2018-05-01T13:10:29.299Z,49.20
2018-05-01T13:12:56.723Z,49.20
2018-05-01T13:15:24.936Z,49.40
2018-05-01T13:17:53.142Z,49.40
2018-05-01T13:20:20.584Z,49.40
2018-05-01T13:22:48.196Z,49.40
2018-05-01T13:25:15.697Z,49.20
2018-05-01T13:27:43.907Z,48.90
2018-05-01T13:30:11.351Z,48.80
2018-05-01T13:32:38.861Z,49.00
2018-05-01T13:35:06.239Z,49.20
2018-05-01T13:37:33.668Z,49.20
2018-05-01T13:40:01.116Z,49.10
2018-05-01T13:42:28.560Z,49.20
2018-05-01T13:44:56.001Z,49.30
2018-05-01T13:47:23.451Z,49.40
2018-05-01T13:50:03.830Z,49.50
2018-05-01T13:52:32.076Z,49.10
2018-05-01T13:54:59.520Z,49.10
2018-05-01T13:57:27.052Z,49.10
2018-05-01T13:59:54.400Z,49.30
2018-05-01T14:02:22.614Z,48.80
2018-05-01T14:04:50.819Z,48.70
2018-05-01T14:07:18.262Z,48.60
2018-05-01T14:09:46.486Z,48.00
2018-05-01T14:12:14.683Z,48.10
2018-05-01T14:14:42.900Z,48.30
2018-05-01T14:17:10.364Z,48.30
2018-05-01T14:19:37.806Z,48.60
2018-05-01T14:22:05.253Z,48.00
2018-05-01T14:24:32.701Z,48.20
2018-05-01T14:27:00.908Z,48.70
2018-05-01T14:29:28.345Z,48.60
2018-05-01T14:31:55.802Z,48.70
2018-05-01T14:34:23.237Z,49.10
2018-05-01T14:36:50.688Z,48.10
2018-05-01T14:39:18.126Z,47.30
2018-05-01T14:41:45.588Z,46.60
2018-05-01T14:44:13.042Z,45.80
2018-05-01T14:46:40.491Z,44.90
2018-05-01T14:49:07.929Z,44.90
2018-05-01T14:51:35.380Z,44.30
2018-05-01T14:54:02.872Z,44.10
2018-05-01T14:56:30.763Z,44.70
2018-05-01T14:58:58.187Z,44.30
2018-05-01T15:01:25.662Z,44.50
2018-05-01T15:03:53.073Z,44.20
2018-05-01T15:06:20.549Z,44.80
2018-05-01T15:08:48.040Z,45.10
2018-05-01T15:11:15.493Z,45.50
2018-05-01T15:13:42.936Z,46.00
2018-05-01T15:16:10.384Z,46.10
2018-05-01T15:18:37.879Z,46.10
2018-05-01T15:21:05.320Z,46.40
2018-05-01T15:23:32.764Z,46.20
2018-05-01T15:26:00.228Z,46.10
2018-05-01T15:28:27.752Z,46.20
2018-05-01T15:30:55.213Z,46.30
2018-05-01T15:33:22.668Z,46.30
2018-05-01T15:35:50.109Z,46.30
2018-05-01T15:38:17.544Z,46.30
2018-05-01T15:40:45.750Z,46.50
2018-05-01T15:43:13.200Z,46.50
2018-05-01T15:45:40.667Z,46.70
2018-05-01T15:48:08.114Z,46.90
2018-05-01T15:50:35.552Z,46.50
2018-05-01T15:53:03.031Z,46.50
2018-05-01T15:55:30.465Z,46.70
2018-05-01T15:57:57.909Z,47.00
2018-05-01T16:00:25.355Z,46.70
2018-05-01T16:02:53.601Z,46.00
2018-05-01T16:05:21.039Z,46.00
2018-05-01T16:07:48.484Z,46.20
2018-05-01T16:10:15.925Z,46.60
2018-05-01T16:12:43.392Z,46.70
2018-05-01T16:15:10.829Z,46.50
2018-05-01T16:17:38.285Z,46.50
2018-05-01T16:20:05.720Z,46.70
2018-05-01T16:22:33.937Z,47.20
2018-05-01T16:25:01.372Z,47.20
2018-05-01T16:27:29.588Z,47.20
2018-05-01T16:29:57.032Z,47.20
2018-05-01T16:32:24.488Z,47.30
2018-05-01T16:34:51.946Z,47.30
2018-05-01T16:37:19.388Z,47.50
2018-05-01T16:39:46.858Z,47.50
2018-05-01T16:42:14.317Z,47.80
2018-05-01T16:44:41.748Z,48.00
2018-05-01T16:47:09.208Z,48.00
2018-05-01T16:49:36.641Z,48.30
2018-05-01T16:52:04.085Z,48.50
2018-05-01T16:54:31.528Z,48.60
2018-05-01T16:56:59.752Z,48.70
2018-05-01T16:59:27.192Z,48.80
2018-05-01T17:01:54.638Z,48.80
2018-05-01T17:04:22.111Z,48.90
2018-05-01T17:06:49.532Z,49.00
2018-05-01T17:09:17.000Z,48.90
2018-05-01T17:11:44.442Z,48.90
2018-05-01T17:14:12.657Z,49.00
2018-05-01T17:16:40.084Z,49.00
2018-05-01T17:19:07.574Z,49.10
2018-05-01T17:21:35.012Z,49.30
2018-05-01T17:24:02.473Z,49.30
2018-05-01T17:26:29.970Z,49.30
2018-05-01T17:28:57.404Z,49.30
2018-05-01T17:31:24.845Z,49.40
2018-05-01T17:33:52.292Z,49.90
2018-05-01T17:36:19.752Z,49.30
2018-05-01T17:38:49.553Z,49.50
2018-05-01T17:41:16.993Z,49.60
2018-05-01T17:43:44.484Z,49.70
2018-05-01T17:46:11.925Z,49.70
2018-05-01T17:48:39.381Z,49.80
2018-05-01T17:51:06.815Z,49.90
2018-05-01T17:53:34.352Z,49.90
2018-05-01T17:56:02.600Z,50.10
2018-05-01T17:58:30.341Z,50.10
2018-05-01T18:00:57.789Z,50.10
2018-05-01T18:03:25.245Z,50.20
2018-05-01T18:05:52.697Z,50.10
2018-05-01T18:08:20.149Z,50.30
2018-05-01T18:10:47.612Z,50.30
2018-05-01T18:13:15.060Z,50.40
2018-05-01T18:15:42.501Z,50.40
2018-05-01T18:18:09.933Z,50.60
2018-05-01T18:20:38.164Z,50.80
2018-05-01T18:23:05.596Z,50.70
2018-05-01T18:25:33.048Z,50.90
2018-05-01T18:28:00.509Z,51.10
2018-05-01T18:30:28.666Z,51.20
2018-05-01T18:32:56.089Z,51.40
2018-05-01T18:35:24.308Z,51.50
2018-05-01T18:37:51.764Z,51.50
2018-05-01T18:40:19.221Z,51.60
2018-05-01T18:42:46.657Z,51.70
2018-05-01T18:45:14.097Z,51.80
2018-05-01T18:47:42.325Z,52.00
2018-05-01T18:50:09.765Z,51.90
2018-05-01T18:52:37.201Z,51.90
2018-05-01T18:55:04.650Z,51.80
2018-05-01T18:57:32.081Z,51.70
2018-05-01T19:00:00.300Z,51.80
2018-05-01T19:02:27.737Z,51.80
2018-05-01T19:04:55.180Z,51.90
2018-05-01T19:07:23.428Z,51.60
2018-05-01T19:09:50.949Z,51.60
2018-05-01T19:12:18.380Z,51.70
2018-05-01T19:14:45.833Z,51.70
2018-05-01T19:17:13.276Z,51.70
2018-05-01T19:19:41.488Z,51.60
2018-05-01T19:22:08.930Z,51.60
2018-05-01T19:24:36.409Z,51.60
2018-05-01T19:27:03.865Z,51.60
2018-05-01T19:29:31.308Z,51.70
2018-05-01T19:31:58.743Z,52.30
2018-05-01T19:34:26.281Z,51.70
2018-05-01T19:36:53.649Z,51.70
2018-05-01T19:39:21.091Z,51.70
2018-05-01T19:41:49.375Z,51.80
2018-05-01T19:44:16.816Z,51.80
2018-05-01T19:46:45.023Z,51.80
2018-05-01T19:49:12.502Z,51.80
2018-05-01T19:51:39.947Z,51.70
2018-05-01T19:54:07.399Z,51.70
2018-05-01T19:56:34.931Z,51.80
2018-05-01T19:59:02.372Z,51.80
2018-05-01T20:01:30.570Z,51.90
2018-05-01T20:03:58.001Z,52.00
2018-05-01T20:06:26.214Z,52.00
2018-05-01T20:08:53.721Z,52.00
2018-05-01T20:11:21.085Z,52.00
2018-05-01T20:13:49.292Z,52.10
2018-05-01T20:16:16.739Z,52.10
2018-05-01T20:18:44.186Z,52.10
2018-05-01T20:21:11.648Z,52.20
2018-05-01T20:23:39.079Z,52.20
2018-05-01T20:26:06.525Z,52.20
2018-05-01T20:28:34.734Z,52.20
2018-05-01T20:31:02.198Z,52.20
2018-05-01T20:33:29.628Z,52.20
2018-05-01T20:35:57.073Z,52.10
2018-05-01T20:38:25.280Z,52.20
2018-05-01T20:40:52.720Z,52.20
2018-05-01T20:43:20.177Z,52.20
2018-05-01T20:45:47.614Z,52.20
2018-05-01T20:48:15.821Z,52.00
2018-05-01T20:50:43.273Z,52.10
2018-05-01T20:53:10.713Z,51.90
2018-05-01T20:55:38.160Z,52.10
2018-05-01T20:58:05.596Z,52.00
2018-05-01T21:00:33.821Z,51.70
2018-05-01T21:03:01.253Z,51.70
2018-05-01T21:05:28.721Z,51.60
2018-05-01T21:07:56.157Z,51.70
2018-05-01T21:10:23.598Z,51.60
2018-05-01T21:12:51.810Z,51.10
2018-05-01T21:15:19.257Z,51.10
2018-05-01T21:17:46.768Z,51.10
2018-05-01T21:20:14.204Z,50.70
2018-05-01T21:22:41.653Z,50.90
2018-05-01T21:25:09.101Z,50.70
2018-05-01T21:27:36.552Z,50.60
2018-05-01T21:30:03.996Z,50.50
2018-05-01T21:32:31.439Z,49.90
2018-05-01T21:34:58.880Z,50.00
2018-05-01T21:37:26.358Z,49.70
2018-05-01T21:39:54.554Z,49.70
2018-05-01T21:42:22.009Z,49.70
2018-05-01T21:44:49.453Z,49.60
2018-05-01T21:47:16.912Z,49.50
2018-05-01T21:49:44.371Z,49.40
2018-05-01T21:52:11.822Z,49.40
2018-05-01T21:54:39.276Z,49.20
2018-05-01T21:57:06.725Z,49.10
2018-05-01T21:59:34.161Z,49.10
2018-05-01T22:02:01.615Z,49.10
2018-05-01T22:04:29.076Z,49.30
2018-05-01T22:06:56.529Z,49.30
2018-05-01T22:09:23.964Z,49.40
2018-05-01T22:11:52.200Z,49.70
2018-05-01T22:14:19.654Z,49.70
2018-05-01T22:16:47.100Z,49.70
2018-05-01T22:19:14.546Z,49.80
2018-05-01T22:21:41.985Z,49.90
2018-05-01T22:24:09.441Z,50.00
2018-05-01T22:26:36.897Z,50.10
2018-05-01T22:29:04.357Z,50.20
2018-05-01T22:31:31.789Z,50.40
2018-05-01T22:34:00.007Z,50.60
2018-05-01T22:36:27.454Z,50.60
2018-05-01T22:38:54.902Z,50.70
2018-05-01T22:41:22.340Z,50.80
2018-05-01T22:43:49.812Z,50.90
2018-05-01T22:46:17.240Z,51.00
2018-05-01T22:48:44.695Z,51.10
2018-05-01T22:51:12.907Z,51.30
2018-05-01T22:53:40.353Z,51.30
2018-05-01T22:56:07.792Z,51.50
2018-05-01T22:58:35.251Z,51.70
2018-05-01T23:01:02.698Z,51.80
2018-05-01T23:03:30.137Z,51.90
2018-05-01T23:05:58.346Z,53.00
2018-05-01T23:08:25.789Z,53.00
2018-05-01T23:10:53.999Z,53.20
2018-05-01T23:13:21.438Z,53.10
2018-05-01T23:15:48.905Z,53.20
2018-05-01T23:18:16.349Z,53.30
2018-05-01T23:20:43.786Z,53.40
2018-05-01T23:23:11.236Z,53.60
2018-05-01T23:25:38.668Z,53.70
2018-05-01T23:28:06.889Z,54.00
2018-05-01T23:30:34.335Z,54.00
2018-05-01T23:33:01.779Z,54.10
2018-05-01T23:35:29.227Z,54.20
2018-05-01T23:37:56.668Z,54.40
2018-05-01T23:40:24.880Z,54.70
2018-05-01T23:42:52.315Z,54.60
2018-05-01T23:45:19.772Z,54.80
2018-05-01T23:47:47.217Z,55.40
2018-05-01T23:50:14.668Z,55.00
2018-05-01T23:52:42.104Z,55.00
2018-05-01T23:55:10.322Z,55.20
2018-05-01T23:57:37.763Z,55.20
